Time;durP1;ratioP1;P1;durP2;ratioP2;P2;SDS_P1;SDS_P2;PMS_P1;PMS_P2;Temp;Humidity;BMP_temperature;BMP_pressure;BME280_temperature;BME280_humidity;BME280_pressure;Samples;Min_cycle;Max_cycle;Signal;HPM_P1;HPM_P2
2021/07/08 00:01:22;;;;;;;12.30;7.17;;;;;;;;;;5073514;28;20467;-51
2021/07/08 00:03:48;;;;;;;9.80;7.80;;;;;;;;;;5072933;28;20411;-52
2021/07/08 00:06:14;;;;;;;7.40;6.70;;;;;;;;;;5073029;28;20414;-51
2021/07/08 00:08:40;;;;;;;9.37;7.13;;;;;;;;;;5073161;28;20524;-51
2021/07/08 00:11:06;;;;;;;7.20;5.83;;;;;;;;;;5073004;28;20433;-51
2021/07/08 00:13:32;;;;;;;8.07;5.87;;;;;;;;;;5073073;28;20409;-52
2021/07/08 00:16:00;;;;;;;6.97;6.23;;;;;;;;;;5072478;28;20743;-52
2021/07/08 00:18:26;;;;;;;9.23;6.97;;;;;;;;;;5073028;28;20375;-51
2021/07/08 00:20:53;;;;;;;10.00;6.93;;;;;;;;;;5072971;28;20410;-51
2021/07/08 00:23:20;;;;;;;7.47;6.57;;;;;;;;;;5073041;28;20755;-51
2021/07/08 00:25:46;;;;;;;7.87;6.47;;;;;;;;;;5072431;28;20409;-52
2021/07/08 00:28:13;;;;;;;10.50;6.70;;;;;;;;;;5072807;28;20377;-52
2021/07/08 00:30:40;;;;;;;11.00;7.33;;;;;;;;;;5072565;28;20424;-51
2021/07/08 00:33:06;;;;;;;7.77;6.77;;;;;;;;;;5072891;28;20792;-51
2021/07/08 00:35:32;;;;;;;6.77;6.07;;;;;;;;;;5072541;28;20400;-52
2021/07/08 00:37:58;;;;;;;7.23;6.50;;;;;;;;;;5072727;28;20387;-51
2021/07/08 00:40:24;;;;;;;12.73;6.63;;;;;;;;;;5072792;28;20376;-51
2021/07/08 00:42:50;;;;;;;7.13;5.37;;;;;;;;;;5072511;28;20381;-51
2021/07/08 00:45:17;;;;;;;6.23;5.60;;;;;;;;;;5072231;28;20708;-51
2021/07/08 00:47:43;;;;;;;17.10;6.80;;;;;;;;;;5072235;28;20404;-51
2021/07/08 00:50:10;;;;;;;6.50;5.37;;;;;;;;;;5072283;28;20429;-51
2021/07/08 00:52:37;;;;;;;8.03;5.77;;;;;;;;;;5072288;28;20773;-51
2021/07/08 00:55:03;;;;;;;11.70;5.10;;;;;;;;;;5072075;28;20412;-52
2021/07/08 00:57:29;;;;;;;7.10;6.20;;;;;;;;;;5071927;28;20405;-51
2021/07/08 00:59:55;;;;;;;6.70;5.97;;;;;;;;;;5072040;28;21012;-52
2021/07/08 01:02:21;;;;;;;14.23;6.23;;;;;;;;;;5071152;28;20446;-51
2021/07/08 01:04:48;;;;;;;9.20;5.77;;;;;;;;;;5071349;28;20401;-52
2021/07/08 01:07:15;;;;;;;5.93;5.30;;;;;;;;;;5071496;28;20433;-51
2021/07/08 01:09:41;;;;;;;9.90;6.53;;;;;;;;;;5071888;28;20848;-51
2021/07/08 01:12:08;;;;;;;6.10;5.50;;;;;;;;;;5071669;28;20498;-51
2021/07/08 01:14:34;;;;;;;8.40;5.60;;;;;;;;;;5053902;28;20422;-51
2021/07/08 01:17:00;;;;;;;6.83;5.47;;;;;;;;;;5071503;28;20420;-51
2021/07/08 01:19:27;;;;;;;5.93;4.83;;;;;;;;;;5071590;28;20407;-51
2021/07/08 01:21:53;;;;;;;10.63;6.60;;;;;;;;;;5072049;28;20407;-51
2021/07/08 01:24:20;;;;;;;11.13;5.80;;;;;;;;;;5071211;28;20374;-52
2021/07/08 01:26:46;;;;;;;6.90;5.77;;;;;;;;;;5071381;28;20429;-51
2021/07/08 01:29:12;;;;;;;9.90;5.80;;;;;;;;;;5071329;28;20412;-51
2021/07/08 01:31:38;;;;;;;10.67;5.20;;;;;;;;;;5071390;28;21155;-51
2021/07/08 01:34:04;;;;;;;12.53;5.57;;;;;;;;;;5071268;28;20377;-51
2021/07/08 01:36:30;;;;;;;6.87;6.23;;;;;;;;;;5071306;28;20397;-51
2021/07/08 01:38:56;;;;;;;10.47;6.23;;;;;;;;;;5071155;28;20438;-51
2021/07/08 01:41:22;;;;;;;7.17;5.93;;;;;;;;;;5071176;28;20413;-51
2021/07/08 01:43:48;;;;;;;8.10;6.70;;;;;;;;;;5070867;28;20402;-51
2021/07/08 01:46:16;;;;;;;8.13;7.07;;;;;;;;;;5071088;28;20499;-51
2021/07/08 01:48:42;;;;;;;9.40;7.87;;;;;;;;;;5071002;28;20384;-51
2021/07/08 01:51:24;;;;;;;19.10;8.70;;;;;;;;;;5071436;28;21062;-51
2021/07/08 01:53:50;;;;;;;11.73;9.50;;;;;;;;;;5070584;28;20385;-51
2021/07/08 01:56:17;;;;;;;9.37;8.07;;;;;;;;;;5071338;28;20797;-51
2021/07/08 01:58:43;;;;;;;7.93;7.10;;;;;;;;;;5070351;28;20388;-51
2021/07/08 02:01:09;;;;;;;15.33;7.70;;;;;;;;;;5070997;28;20909;-51
2021/07/08 02:03:35;;;;;;;8.33;7.10;;;;;;;;;;5070878;28;20406;-51
2021/07/08 02:06:01;;;;;;;8.50;7.30;;;;;;;;;;5070627;28;20471;-51
2021/07/08 02:08:27;;;;;;;7.90;6.90;;;;;;;;;;5070846;28;20375;-51
2021/07/08 02:10:53;;;;;;;9.87;7.67;;;;;;;;;;5070845;28;20448;-51
2021/07/08 02:13:19;;;;;;;8.83;7.10;;;;;;;;;;5070786;28;20424;-51
2021/07/08 02:15:45;;;;;;;9.97;7.07;;;;;;;;;;5070470;28;20462;-51
2021/07/08 02:18:11;;;;;;;8.67;7.77;;;;;;;;;;5071077;28;20427;-51
2021/07/08 02:20:38;;;;;;;10.40;8.17;;;;;;;;;;5070612;28;20388;-51
2021/07/08 02:23:04;;;;;;;30.13;8.50;;;;;;;;;;5070595;28;20393;-51
2021/07/08 02:25:30;;;;;;;13.43;9.20;;;;;;;;;;5070224;28;20429;-51
2021/07/08 02:27:58;;;;;;;10.03;8.70;;;;;;;;;;5070537;28;20391;-51
2021/07/08 02:30:24;;;;;;;11.13;8.80;;;;;;;;;;5070528;28;20448;-51
2021/07/08 02:32:52;;;;;;;14.90;8.37;;;;;;;;;;5070654;28;20409;-51
2021/07/08 02:35:19;;;;;;;15.20;9.03;;;;;;;;;;5070233;28;20397;-51
2021/07/08 02:37:45;;;;;;;14.50;9.13;;;;;;;;;;5070513;28;20404;-51
2021/07/08 02:40:12;;;;;;;21.37;9.27;;;;;;;;;;5070628;28;20383;-51
2021/07/08 02:42:39;;;;;;;9.03;7.23;;;;;;;;;;5070554;28;20406;-51
2021/07/08 02:45:06;;;;;;;10.23;8.00;;;;;;;;;;5070432;28;20444;-51
2021/07/08 02:47:32;;;;;;;11.03;8.30;;;;;;;;;;5070734;28;20915;-51
2021/07/08 02:49:57;;;;;;;15.93;8.67;;;;;;;;;;5070791;28;20426;-51
2021/07/08 02:52:23;;;;;;;13.63;8.80;;;;;;;;;;5070574;28;20799;-51
2021/07/08 02:54:49;;;;;;;13.33;10.60;;;;;;;;;;5070402;28;20756;-51
2021/07/08 02:57:15;;;;;;;15.70;10.57;;;;;;;;;;5070453;28;20419;-51
2021/07/08 02:59:41;;;;;;;14.73;10.10;;;;;;;;;;5070550;28;20368;-51
2021/07/08 03:02:07;;;;;;;20.90;10.57;;;;;;;;;;5070387;28;20417;-51
2021/07/08 03:04:33;;;;;;;15.00;10.27;;;;;;;;;;5070169;28;20400;-51
2021/07/08 03:06:59;;;;;;;14.10;9.60;;;;;;;;;;5070141;28;20967;-51
2021/07/08 03:09:25;;;;;;;16.73;10.23;;;;;;;;;;5071899;28;20419;-51
2021/07/08 03:11:51;;;;;;;11.80;10.10;;;;;;;;;;5074015;28;20459;-51
2021/07/08 03:14:17;;;;;;;20.60;9.03;;;;;;;;;;5074020;28;20773;-52
2021/07/08 03:16:43;;;;;;;13.07;10.33;;;;;;;;;;5073951;28;20447;-51
2021/07/08 03:19:09;;;;;;;17.97;10.10;;;;;;;;;;5073916;28;20370;-51
2021/07/08 03:21:35;;;;;;;17.23;10.57;;;;;;;;;;5073987;28;20375;-51
2021/07/08 03:24:01;;;;;;;12.80;10.00;;;;;;;;;;5073548;28;20429;-51
2021/07/08 03:26:27;;;;;;;16.83;11.17;;;;;;;;;;5073952;28;20518;-51
2021/07/08 03:28:53;;;;;;;16.97;12.17;;;;;;;;;;5073659;28;20879;-51
2021/07/08 03:31:19;;;;;;;16.63;10.07;;;;;;;;;;5073696;28;20491;-51
2021/07/08 03:33:45;;;;;;;22.97;11.03;;;;;;;;;;5073425;28;20738;-51
2021/07/08 03:36:11;;;;;;;18.20;10.47;;;;;;;;;;5073569;28;20478;-51
2021/07/08 03:38:37;;;;;;;14.77;10.50;;;;;;;;;;5073470;28;20400;-51
2021/07/08 03:41:03;;;;;;;19.30;10.67;;;;;;;;;;5073811;28;20414;-51
2021/07/08 03:43:29;;;;;;;19.03;9.70;;;;;;;;;;5073793;28;20375;-51
2021/07/08 03:45:55;;;;;;;11.60;8.60;;;;;;;;;;5073217;28;20767;-51
2021/07/08 03:48:21;;;;;;;11.63;9.53;;;;;;;;;;5055338;28;20387;-51
2021/07/08 03:50:47;;;;;;;18.77;8.23;;;;;;;;;;5073289;28;20458;-51
2021/07/08 03:53:13;;;;;;;13.00;8.80;;;;;;;;;;5073370;28;20372;-51
2021/07/08 03:55:39;;;;;;;12.00;8.10;;;;;;;;;;5073011;28;20379;-51
2021/07/08 03:58:05;;;;;;;10.30;7.20;;;;;;;;;;5073218;28;20400;-51
2021/07/08 04:00:33;;;;;;;14.40;8.50;;;;;;;;;;5073083;28;20419;-51
2021/07/08 04:03:01;;;;;;;15.37;8.00;;;;;;;;;;5073131;28;20816;-51
2021/07/08 04:05:27;;;;;;;10.70;7.30;;;;;;;;;;5073086;28;20383;-51
2021/07/08 04:07:53;;;;;;;13.67;7.37;;;;;;;;;;5073147;28;20398;-51
2021/07/08 04:10:19;;;;;;;8.13;6.80;;;;;;;;;;5072905;28;20821;-51
2021/07/08 04:12:46;;;;;;;12.03;7.83;;;;;;;;;;5073131;28;20397;-51
2021/07/08 04:15:12;;;;;;;12.93;8.07;;;;;;;;;;5072719;28;20394;-51
2021/07/08 04:17:38;;;;;;;14.27;8.10;;;;;;;;;;5072643;28;20961;-51
2021/07/08 04:20:05;;;;;;;18.20;8.30;;;;;;;;;;5072843;28;20387;-51
2021/07/08 04:22:31;;;;;;;23.73;8.67;;;;;;;;;;5072304;28;20383;-51
2021/07/08 04:24:57;;;;;;;14.20;9.07;;;;;;;;;;5072699;28;20907;-51
2021/07/08 04:27:23;;;;;;;16.37;8.90;;;;;;;;;;5072721;28;20438;-51
2021/07/08 04:29:49;;;;;;;17.83;9.30;;;;;;;;;;5072553;28;20416;-51
2021/07/08 04:32:15;;;;;;;17.33;9.17;;;;;;;;;;5072653;28;20379;-51
2021/07/08 04:34:41;;;;;;;12.47;7.83;;;;;;;;;;5072382;28;20886;-51
2021/07/08 04:37:07;;;;;;;11.47;7.40;;;;;;;;;;5072609;28;20596;-51
2021/07/08 04:39:33;;;;;;;13.57;8.10;;;;;;;;;;5072614;28;20405;-51
2021/07/08 04:41:59;;;;;;;11.67;7.77;;;;;;;;;;5072374;28;20405;-52
2021/07/08 04:44:25;;;;;;;10.33;8.27;;;;;;;;;;5072294;28;20380;-51
2021/07/08 04:46:51;;;;;;;13.90;7.80;;;;;;;;;;5072229;28;20436;-51
2021/07/08 04:49:17;;;;;;;11.50;7.97;;;;;;;;;;5072470;28;20534;-51
2021/07/08 04:51:43;;;;;;;8.40;7.50;;;;;;;;;;5072392;28;20432;-51
2021/07/08 04:54:09;;;;;;;8.83;6.93;;;;;;;;;;5072249;28;20432;-51
2021/07/08 04:56:35;;;;;;;10.03;6.10;;;;;;;;;;5072147;28;20503;-51
2021/07/08 04:59:01;;;;;;;7.50;6.80;;;;;;;;;;5072421;28;20443;-51
2021/07/08 05:01:27;;;;;;;10.67;7.30;;;;;;;;;;5072428;28;20394;-51
2021/07/08 05:03:58;;;;;;;12.77;6.80;;;;;;;;;;5071984;28;20402;-51
2021/07/08 05:06:23;;;;;;;10.70;7.10;;;;;;;;;;5071998;28;20483;-51
2021/07/08 05:08:49;;;;;;;8.00;7.20;;;;;;;;;;5071919;28;20797;-51
2021/07/08 05:11:15;;;;;;;14.57;7.33;;;;;;;;;;5071707;28;20440;-51
2021/07/08 05:13:41;;;;;;;7.83;7.00;;;;;;;;;;5071704;28;20460;-51
2021/07/08 05:16:07;;;;;;;9.43;7.40;;;;;;;;;;5071566;28;20419;-52
2021/07/08 05:18:33;;;;;;;10.20;7.60;;;;;;;;;;5071753;28;20405;-51
2021/07/08 05:21:00;;;;;;;14.03;7.83;;;;;;;;;;5071726;28;20402;-51
2021/07/08 05:23:28;;;;;;;10.20;7.47;;;;;;;;;;5071433;28;20411;-51
2021/07/08 05:25:54;;;;;;;11.77;7.27;;;;;;;;;;5072276;28;20383;-50
2021/07/08 05:28:20;;;;;;;12.37;8.33;;;;;;;;;;5071970;28;20392;-50
2021/07/08 05:30:46;;;;;;;9.80;7.60;;;;;;;;;;5072044;28;20452;-50
2021/07/08 05:33:12;;;;;;;9.87;7.40;;;;;;;;;;5071834;28;20381;-50
2021/07/08 05:35:38;;;;;;;11.83;8.40;;;;;;;;;;5071672;28;20370;-51
2021/07/08 05:38:06;;;;;;;13.03;8.60;;;;;;;;;;5071712;28;20391;-51
2021/07/08 05:40:32;;;;;;;12.23;9.57;;;;;;;;;;5071722;28;20420;-50
2021/07/08 05:42:58;;;;;;;9.53;8.27;;;;;;;;;;5071521;28;20401;-50
2021/07/08 05:45:24;;;;;;;8.67;7.77;;;;;;;;;;5071486;28;20733;-50
2021/07/08 05:47:50;;;;;;;12.30;8.50;;;;;;;;;;5071732;28;20436;-50
2021/07/08 05:50:16;;;;;;;13.33;9.50;;;;;;;;;;5072118;28;20568;-50
2021/07/08 05:52:43;;;;;;;13.43;8.70;;;;;;;;;;5072080;28;20452;-50
2021/07/08 05:55:09;;;;;;;17.80;10.00;;;;;;;;;;5071269;28;20367;-50
2021/07/08 05:57:35;;;;;;;20.13;10.20;;;;;;;;;;5071366;28;20416;-52
2021/07/08 06:00:01;;;;;;;13.90;9.30;;;;;;;;;;5070899;28;20838;-50
2021/07/08 06:02:27;;;;;;;14.30;10.10;;;;;;;;;;5071096;28;20382;-51
2021/07/08 06:04:53;;;;;;;10.70;9.10;;;;;;;;;;5070505;28;20400;-52
2021/07/08 06:07:20;;;;;;;18.07;9.60;;;;;;;;;;5069630;28;20467;-51
2021/07/08 06:09:46;;;;;;;14.13;9.37;;;;;;;;;;5070495;28;20940;-50
2021/07/08 06:12:11;;;;;;;12.20;7.77;;;;;;;;;;5071077;28;20432;-52
2021/07/08 06:14:37;;;;;;;12.23;9.23;;;;;;;;;;5071243;28;20777;-49
2021/07/08 06:17:06;;;;;;;14.17;8.47;;;;;;;;;;5070546;28;20520;-49
2021/07/08 06:19:32;;;;;;;12.20;7.60;;;;;;;;;;5070683;28;20840;-50
2021/07/08 06:21:58;;;;;;;17.03;8.10;;;;;;;;;;5070725;28;20408;-50
2021/07/08 06:24:24;;;;;;;14.70;8.00;;;;;;;;;;5070909;28;20396;-52
2021/07/08 06:26:50;;;;;;;19.67;8.40;;;;;;;;;;5070260;28;20783;-53
2021/07/08 06:29:16;;;;;;;16.00;8.30;;;;;;;;;;5070587;28;20466;-51
2021/07/08 06:31:42;;;;;;;12.43;7.73;;;;;;;;;;5052430;28;20496;-52
2021/07/08 06:34:09;;;;;;;13.17;8.10;;;;;;;;;;5070420;28;20791;-49
2021/07/08 06:36:35;;;;;;;16.30;10.30;;;;;;;;;;5070337;28;20417;-51
2021/07/08 06:39:01;;;;;;;15.00;8.47;;;;;;;;;;5070409;28;20466;-51
2021/07/08 06:41:27;;;;;;;10.53;8.57;;;;;;;;;;5070341;28;20455;-51
2021/07/08 06:43:53;;;;;;;11.93;8.90;;;;;;;;;;5070090;28;20404;-52
2021/07/08 06:46:26;;;;;;;21.20;9.53;;;;;;;;;;5070362;28;20839;-53
2021/07/08 06:48:52;;;;;;;14.80;8.40;;;;;;;;;;5070587;28;20816;-49
2021/07/08 06:51:18;;;;;;;18.63;8.80;;;;;;;;;;5070481;28;20452;-49
2021/07/08 06:53:44;;;;;;;12.83;8.63;;;;;;;;;;5070041;28;20428;-50
2021/07/08 06:56:10;;;;;;;15.20;10.20;;;;;;;;;;5070209;28;20419;-49
2021/07/08 06:58:36;;;;;;;13.40;9.23;;;;;;;;;;5070116;28;20892;-50
2021/07/08 07:01:02;;;;;;;15.53;9.30;;;;;;;;;;5070504;28;20498;-51
2021/07/08 07:03:28;;;;;;;24.50;10.20;;;;;;;;;;5070121;28;20405;-50
2021/07/08 07:05:54;;;;;;;16.07;9.70;;;;;;;;;;5069943;28;20403;-51
2021/07/08 07:08:20;;;;;;;14.47;9.87;;;;;;;;;;5070067;28;20407;-50
2021/07/08 07:10:46;;;;;;;12.73;8.50;;;;;;;;;;5069989;28;20454;-50
2021/07/08 07:13:12;;;;;;;13.67;8.00;;;;;;;;;;5069991;28;20402;-51
2021/07/08 07:15:41;;;;;;;9.30;7.13;;;;;;;;;;5069868;28;20392;-51
2021/07/08 07:18:07;;;;;;;17.60;7.70;;;;;;;;;;5070039;28;20473;-49
2021/07/08 07:20:33;;;;;;;10.43;6.80;;;;;;;;;;5069975;28;20491;-49
2021/07/08 07:23:01;;;;;;;8.73;6.57;;;;;;;;;;5069779;28;20414;-49
2021/07/08 07:25:27;;;;;;;18.70;6.70;;;;;;;;;;5069789;28;20440;-52
2021/07/08 07:27:54;;;;;;;18.03;6.73;;;;;;;;;;5070136;28;20426;-49
2021/07/08 07:30:22;;;;;;;10.70;6.70;;;;;;;;;;5069867;28;20459;-51
2021/07/08 07:32:48;;;;;;;10.27;6.60;;;;;;;;;;5069997;28;20433;-49
2021/07/08 07:35:14;;;;;;;9.80;7.10;;;;;;;;;;5069483;28;20425;-50
2021/07/08 07:37:41;;;;;;;10.90;6.30;;;;;;;;;;5069766;28;20446;-49
2021/07/08 07:40:07;;;;;;;10.67;7.43;;;;;;;;;;5069757;28;20411;-49
2021/07/08 07:42:34;;;;;;;10.30;7.30;;;;;;;;;;5069968;28;20400;-51
2021/07/08 07:45:00;;;;;;;9.90;6.40;;;;;;;;;;5069540;28;20907;-49
2021/07/08 07:47:28;;;;;;;13.93;6.17;;;;;;;;;;5069601;28;20428;-49
2021/07/08 07:49:54;;;;;;;13.17;5.77;;;;;;;;;;5069731;28;20409;-50
2021/07/08 07:52:20;;;;;;;6.80;4.90;;;;;;;;;;5069513;28;20913;-49
2021/07/08 07:54:46;;;;;;;6.53;4.67;;;;;;;;;;5069494;28;20775;-50
2021/07/08 07:57:12;;;;;;;3.57;3.27;;;;;;;;;;5071953;28;20416;-50
2021/07/08 07:59:39;;;;;;;8.27;3.87;;;;;;;;;;5066186;28;20413;-49
2021/07/08 08:02:10;;;;;;;7.10;4.07;;;;;;;;;;5052853;28;20398;-52
2021/07/08 08:04:42;;;;;;;5.93;3.60;;;;;;;;;;5052863;28;20426;-50
2021/07/08 08:09:54;;;;;;;11.43;5.43;;;;;;;;;;5053055;28;20919;-50
2021/07/08 08:12:20;;;;;;;6.67;4.20;;;;;;;;;;5052941;28;20395;-49
2021/07/08 08:14:46;;;;;;;4.60;3.77;;;;;;;;;;5052809;28;20404;-49
2021/07/08 08:17:12;;;;;;;5.37;3.03;;;;;;;;;;5052761;28;20451;-50
2021/07/08 08:19:38;;;;;;;6.73;4.00;;;;;;;;;;5052764;28;20490;-50
2021/07/08 08:22:06;;;;;;;6.33;3.50;;;;;;;;;;5053030;28;20416;-50
2021/07/08 08:24:32;;;;;;;5.97;3.50;;;;;;;;;;5052394;28;20402;-50
2021/07/08 08:26:58;;;;;;;3.50;3.20;;;;;;;;;;5053200;28;20421;-50
2021/07/08 08:29:25;;;;;;;3.83;2.97;;;;;;;;;;5053050;28;20425;-50
2021/07/08 08:31:51;;;;;;;5.70;2.90;;;;;;;;;;5052830;28;20457;-50
2021/07/08 08:34:18;;;;;;;4.43;3.10;;;;;;;;;;5052416;28;20405;-53
2021/07/08 08:36:45;;;;;;;6.50;2.70;;;;;;;;;;5052548;28;20425;-53
2021/07/08 08:39:11;;;;;;;7.40;2.90;;;;;;;;;;5051938;28;20782;-51
2021/07/08 08:41:37;;;;;;;3.90;3.40;;;;;;;;;;5052572;28;20419;-51
2021/07/08 08:44:04;;;;;;;3.50;2.53;;;;;;;;;;5052204;28;20878;-50
2021/07/08 08:46:32;;;;;;;5.40;3.10;;;;;;;;;;5051968;28;20425;-53
2021/07/08 08:48:58;;;;;;;3.90;2.23;;;;;;;;;;5052532;28;20401;-51
2021/07/08 08:51:25;;;;;;;4.07;3.37;;;;;;;;;;5052089;28;21020;-52
2021/07/08 08:53:51;;;;;;;3.30;2.20;;;;;;;;;;5052363;28;20781;-51
2021/07/08 08:56:17;;;;;;;4.40;2.70;;;;;;;;;;5052067;28;20428;-51
2021/07/08 08:58:43;;;;;;;6.63;5.67;;;;;;;;;;5052133;28;20480;-51
2021/07/08 09:01:09;;;;;;;4.37;3.23;;;;;;;;;;5051984;28;20806;-51
2021/07/08 09:03:35;;;;;;;5.43;2.97;;;;;;;;;;5052234;28;20166;-52
2021/07/08 09:06:01;;;;;;;3.70;2.80;;;;;;;;;;5051622;28;20401;-51
2021/07/08 09:08:27;;;;;;;3.30;2.43;;;;;;;;;;5051704;28;20421;-50
2021/07/08 09:11:05;;;;;;;2.50;2.23;;;;;;;;;;5051753;28;20445;-52
2021/07/08 09:13:46;;;;;;;3.20;2.10;;;;;;;;;;5051711;28;20480;-52
2021/07/08 09:16:12;;;;;;;3.17;2.57;;;;;;;;;;5051844;28;20853;-51
2021/07/08 09:18:38;;;;;;;4.83;4.33;;;;;;;;;;5051877;28;20397;-51
2021/07/08 09:21:16;;;;;;;3.73;2.80;;;;;;;;;;5051650;28;20174;-55
2021/07/08 09:24:02;;;;;;;3.77;2.13;;;;;;;;;;5051463;28;20420;-53
2021/07/08 09:26:28;;;;;;;2.73;2.17;;;;;;;;;;5051561;28;20914;-51
2021/07/08 09:29:04;;;;;;;2.90;2.70;;;;;;;;;;5051591;28;20412;-54
2021/07/08 09:31:30;;;;;;;7.93;3.00;;;;;;;;;;5051777;28;20198;-51
2021/07/08 09:33:57;;;;;;;3.63;2.53;;;;;;;;;;5051272;28;20409;-50
2021/07/08 09:36:23;;;;;;;4.70;4.00;;;;;;;;;;5051272;28;20624;-51
2021/07/08 09:38:50;;;;;;;5.60;3.70;;;;;;;;;;5051298;28;20830;-50
2021/07/08 09:41:25;;;;;;;6.93;2.90;;;;;;;;;;5051388;28;20413;-50
2021/07/08 09:43:51;;;;;;;6.40;2.87;;;;;;;;;;5051036;28;20436;-50
2021/07/08 09:46:18;;;;;;;3.37;3.17;;;;;;;;;;5051280;28;20425;-50
2021/07/08 09:49:02;;;;;;;4.63;3.23;;;;;;;;;;5050957;28;20492;-50
2021/07/08 09:51:29;;;;;;;8.00;3.50;;;;;;;;;;5051197;28;20448;-50
2021/07/08 09:54:04;;;;;;;11.93;4.20;;;;;;;;;;5050761;28;20772;-50
2021/07/08 09:56:43;;;;;;;7.23;3.43;;;;;;;;;;5051053;28;20505;-50
2021/07/08 09:59:09;;;;;;;3.97;3.67;;;;;;;;;;5050863;28;20447;-50
2021/07/08 10:01:35;;;;;;;4.97;2.87;;;;;;;;;;5050983;28;20401;-50
2021/07/08 10:04:01;;;;;;;3.77;3.30;;;;;;;;;;5050646;28;20926;-50
2021/07/08 10:06:27;;;;;;;4.10;3.27;;;;;;;;;;5050938;28;20421;-50
2021/07/08 10:08:54;;;;;;;6.33;2.87;;;;;;;;;;5050698;28;20413;-50
2021/07/08 10:11:20;;;;;;;3.83;3.13;;;;;;;;;;5050833;28;20532;-50
2021/07/08 10:13:46;;;;;;;2.73;2.53;;;;;;;;;;5050423;28;20405;-52
2021/07/08 10:16:17;;;;;;;3.03;2.73;;;;;;;;;;5050884;28;20434;-50
2021/07/08 10:18:44;;;;;;;7.70;2.83;;;;;;;;;;5050300;28;20406;-50
2021/07/08 10:21:11;;;;;;;4.03;2.60;;;;;;;;;;5050558;28;20467;-53
2021/07/08 10:23:37;;;;;;;4.47;3.50;;;;;;;;;;5050647;28;20496;-51
2021/07/08 10:26:05;;;;;;;2.93;2.40;;;;;;;;;;5050517;28;20409;-50
2021/07/08 10:28:32;;;;;;;3.70;2.90;;;;;;;;;;5050692;28;20402;-52
2021/07/08 10:30:59;;;;;;;6.33;2.60;;;;;;;;;;5050859;28;20460;-53
2021/07/08 10:33:25;;;;;;;5.37;2.63;;;;;;;;;;5050785;28;20487;-51
2021/07/08 10:35:52;;;;;;;3.50;2.63;;;;;;;;;;5050373;28;20780;-53
2021/07/08 10:38:27;;;;;;;3.80;2.53;;;;;;;;;;5050877;28;20412;-50
2021/07/08 10:40:54;;;;;;;3.77;3.30;;;;;;;;;;5050326;28;20460;-51
2021/07/08 10:43:33;;;;;;;3.70;2.73;;;;;;;;;;5050658;28;20401;-50
2021/07/08 10:46:03;;;;;;;3.40;3.00;;;;;;;;;;5050389;28;20464;-53
2021/07/08 10:48:46;;;;;;;5.00;2.27;;;;;;;;;;5050642;28;20429;-50
2021/07/08 10:51:17;;;;;;;4.80;2.50;;;;;;;;;;5050201;28;20517;-50
2021/07/08 10:53:45;;;;;;;3.43;2.50;;;;;;;;;;5050196;28;20414;-50
2021/07/08 10:56:13;;;;;;;2.50;2.33;;;;;;;;;;5050238;28;20417;-52
2021/07/08 10:58:55;;;;;;;4.47;2.60;;;;;;;;;;5050377;28;20420;-50
2021/07/08 11:01:25;;;;;;;3.17;2.77;;;;;;;;;;5050258;28;20447;-50
2021/07/08 11:03:52;;;;;;;2.60;2.20;;;;;;;;;;5048528;28;20414;-51
2021/07/08 11:06:18;;;;;;;2.57;2.37;;;;;;;;;;5058494;28;20443;-50
2021/07/08 11:08:48;;;;;;;3.40;2.37;;;;;;;;;;5070039;28;20401;-51
2021/07/08 11:11:21;;;;;;;3.20;2.17;;;;;;;;;;5070025;28;21095;-50
2021/07/08 11:13:47;;;;;;;2.80;2.50;;;;;;;;;;5069749;28;20404;-53
2021/07/08 11:16:32;;;;;;;2.30;2.10;;;;;;;;;;5067311;28;20443;-52
2021/07/08 11:19:01;;;;;;;5.90;2.73;;;;;;;;;;5053078;28;20484;-50
2021/07/08 11:21:46;;;;;;;6.20;5.60;;;;;;;;;;5050015;28;20412;-51
2021/07/08 11:24:15;;;;;;;6.87;3.60;;;;;;;;;;5049774;28;20928;-50
2021/07/08 11:26:50;;;;;;;5.20;4.20;;;;;;;;;;5050472;28;20426;-53
2021/07/08 11:29:32;;;;;;;28.47;19.03;;;;;;;;;;5048906;28;20397;-50
2021/07/08 11:31:58;;;;;;;3.50;3.20;;;;;;;;;;5056229;28;20976;-50
2021/07/08 11:34:27;;;;;;;6.00;3.90;;;;;;;;;;5071598;28;20415;-51
2021/07/08 11:36:55;;;;;;;5.27;4.77;;;;;;;;;;5068333;28;20440;-51
2021/07/08 11:39:26;;;;;;;3.53;3.23;;;;;;;;;;5063405;28;20408;-50
2021/07/08 11:41:55;;;;;;;7.93;4.57;;;;;;;;;;5071289;28;20462;-51
2021/07/08 11:44:30;;;;;;;4.73;2.90;;;;;;;;;;5072129;28;20408;-50
2021/07/08 11:46:57;;;;;;;4.17;3.30;;;;;;;;;;5072357;28;20905;-51
2021/07/08 11:49:24;;;;;;;5.00;3.30;;;;;;;;;;5072420;28;20396;-50
2021/07/08 11:51:50;;;;;;;4.17;3.43;;;;;;;;;;5072509;28;20482;-49
2021/07/08 11:54:16;;;;;;;7.50;3.70;;;;;;;;;;5073562;28;20395;-49
2021/07/08 11:56:42;;;;;;;4.97;3.37;;;;;;;;;;5073421;28;20429;-49
2021/07/08 11:59:08;;;;;;;5.87;4.30;;;;;;;;;;5073780;28;20408;-49
2021/07/08 12:01:38;;;;;;;11.97;9.33;;;;;;;;;;5073458;28;21015;-49
2021/07/08 12:04:05;;;;;;;6.17;5.67;;;;;;;;;;5073356;28;20491;-54
2021/07/08 12:06:31;;;;;;;3.97;3.63;;;;;;;;;;5073176;28;20421;-52
2021/07/08 12:09:01;;;;;;;10.23;3.60;;;;;;;;;;5073460;28;20835;-50
2021/07/08 12:11:42;;;;;;;3.40;3.20;;;;;;;;;;5073174;28;20466;-49
2021/07/08 12:14:12;;;;;;;6.90;4.40;;;;;;;;;;5073160;28;20491;-50
2021/07/08 12:16:48;;;;;;;2.97;2.77;;;;;;;;;;5073206;28;20580;-50
2021/07/08 12:19:20;;;;;;;4.03;3.20;;;;;;;;;;5073177;28;20808;-49
2021/07/08 12:21:46;;;;;;;4.30;3.33;;;;;;;;;;5073002;28;20412;-50
2021/07/08 12:24:23;;;;;;;4.13;3.27;;;;;;;;;;5072591;28;20798;-49
2021/07/08 12:26:49;;;;;;;3.33;2.87;;;;;;;;;;5072760;28;20477;-52
2021/07/08 12:29:24;;;;;;;4.20;2.93;;;;;;;;;;5072610;28;20400;-52
2021/07/08 12:31:52;;;;;;;6.40;3.00;;;;;;;;;;5072743;28;20455;-51
2021/07/08 12:34:23;;;;;;;3.57;2.97;;;;;;;;;;5072421;28;20465;-50
2021/07/08 12:36:49;;;;;;;8.90;2.70;;;;;;;;;;5072709;28;20455;-51
2021/07/08 12:39:23;;;;;;;8.30;3.10;;;;;;;;;;5072523;28;20508;-53
2021/07/08 12:41:49;;;;;;;3.13;2.30;;;;;;;;;;5071813;28;20454;-50
2021/07/08 12:44:16;;;;;;;9.20;2.50;;;;;;;;;;5072163;28;20846;-50
2021/07/08 12:46:42;;;;;;;3.70;2.90;;;;;;;;;;5059691;28;20436;-50
2021/07/08 12:49:09;;;;;;;3.27;2.63;;;;;;;;;;5067478;28;20417;-50
2021/07/08 12:51:36;;;;;;;3.03;2.70;;;;;;;;;;5068798;28;20453;-50
2021/07/08 12:54:02;;;;;;;2.77;2.57;;;;;;;;;;5052128;28;20397;-52
2021/07/08 12:56:28;;;;;;;5.90;5.30;;;;;;;;;;5052088;28;20991;-50
2021/07/08 12:58:57;;;;;;;3.03;2.63;;;;;;;;;;5051514;28;20977;-51
2021/07/08 13:01:27;;;;;;;2.50;2.30;;;;;;;;;;5051439;28;20458;-50
2021/07/08 13:03:53;;;;;;;5.17;2.87;;;;;;;;;;5052002;28;20429;-53
2021/07/08 13:06:22;;;;;;;5.70;2.53;;;;;;;;;;5050773;28;20946;-52
2021/07/08 13:08:48;;;;;;;2.57;2.20;;;;;;;;;;5051983;28;20410;-50
2021/07/08 13:11:16;;;;;;;3.90;2.90;;;;;;;;;;5051762;28;20468;-50
2021/07/08 13:13:42;;;;;;;2.60;2.30;;;;;;;;;;5051702;28;20910;-51
2021/07/08 13:16:18;;;;;;;6.50;3.13;;;;;;;;;;5051713;28;20452;-53
2021/07/08 13:18:44;;;;;;;4.60;2.90;;;;;;;;;;5051867;28;20439;-49
2021/07/08 13:21:14;;;;;;;2.83;2.63;;;;;;;;;;5051846;28;20919;-52
2021/07/08 13:23:42;;;;;;;3.57;3.27;;;;;;;;;;5051465;28;20904;-55
2021/07/08 13:26:09;;;;;;;3.93;3.43;;;;;;;;;;5051556;28;20758;-52
2021/07/08 13:28:35;;;;;;;5.00;2.90;;;;;;;;;;5051467;28;20406;-50
2021/07/08 13:31:07;;;;;;;2.87;2.67;;;;;;;;;;5051564;28;20464;-50
2021/07/08 13:33:52;;;;;;;3.73;3.33;;;;;;;;;;5051420;28;20492;-49
2021/07/08 13:36:22;;;;;;;3.43;3.23;;;;;;;;;;5051519;28;20452;-50
2021/07/08 13:38:50;;;;;;;5.83;3.60;;;;;;;;;;5051394;28;20408;-51
2021/07/08 13:41:26;;;;;;;5.43;3.70;;;;;;;;;;5051504;28;20399;-52
2021/07/08 13:43:58;;;;;;;4.77;4.30;;;;;;;;;;5051009;28;20933;-49
2021/07/08 13:46:26;;;;;;;7.73;3.70;;;;;;;;;;5051227;28;20993;-49
2021/07/08 13:48:53;;;;;;;7.90;4.80;;;;;;;;;;5051248;28;20897;-49
2021/07/08 13:51:20;;;;;;;4.47;4.07;;;;;;;;;;5051226;28;20492;-51
2021/07/08 13:53:46;;;;;;;10.60;3.73;;;;;;;;;;5050136;28;20455;-55
2021/07/08 13:56:15;;;;;;;4.27;3.87;;;;;;;;;;5051121;28;20477;-49
2021/07/08 13:58:41;;;;;;;4.10;3.80;;;;;;;;;;5051177;28;20400;-50
2021/07/08 14:01:07;;;;;;;4.50;4.00;;;;;;;;;;5051126;28;20418;-52
2021/07/08 14:03:33;;;;;;;5.10;3.73;;;;;;;;;;5051248;28;20508;-50
2021/07/08 14:05:59;;;;;;;4.30;3.87;;;;;;;;;;5050867;28;20916;-52
2021/07/08 14:08:31;;;;;;;7.73;4.00;;;;;;;;;;5051243;28;20769;-53
2021/07/08 14:10:57;;;;;;;5.60;4.60;;;;;;;;;;5051021;28;20456;-49
2021/07/08 14:13:23;;;;;;;5.30;3.73;;;;;;;;;;5050834;28;20400;-49
2021/07/08 14:15:49;;;;;;;4.13;3.83;;;;;;;;;;5065086;28;20427;-49
2021/07/08 14:18:15;;;;;;;4.00;3.70;;;;;;;;;;5069282;28;20458;-49
2021/07/08 14:20:41;;;;;;;8.50;5.00;;;;;;;;;;5070435;28;20404;-50
2021/07/08 14:23:07;;;;;;;5.67;5.10;;;;;;;;;;5070610;28;20401;-50
2021/07/08 14:25:33;;;;;;;5.10;4.60;;;;;;;;;;5070081;28;20879;-49
2021/07/08 14:27:58;;;;;;;6.23;3.80;;;;;;;;;;5065083;28;20532;-49
2021/07/08 14:30:26;;;;;;;3.60;3.30;;;;;;;;;;5050482;28;20457;-49
2021/07/08 14:32:53;;;;;;;4.33;3.93;;;;;;;;;;5061294;28;20404;-50
2021/07/08 14:35:19;;;;;;;4.20;3.73;;;;;;;;;;5070445;28;20767;-50
2021/07/08 14:37:45;;;;;;;11.27;5.77;;;;;;;;;;5070388;28;20419;-52
2021/07/08 14:40:11;;;;;;;14.57;6.93;;;;;;;;;;5070504;28;20396;-53